createdAt,value
2023-03-02T00:00:06.107Z,0
2023-03-02T00:01:15.238Z,0
2023-03-02T00:02:24.462Z,0
2023-03-02T00:03:33.477Z,0
2023-03-02T00:04:42.802Z,0
2023-03-02T00:05:52.007Z,0
2023-03-02T00:07:01.191Z,0
2023-03-02T00:08:10.152Z,0
2023-03-02T00:09:19.563Z,0
2023-03-02T00:10:27.608Z,0
2023-03-02T00:11:36.858Z,0
2023-03-02T00:12:45.994Z,0
2023-03-02T00:13:55.246Z,0
2023-03-02T00:15:04.358Z,0
2023-03-02T00:16:13.528Z,0
2023-03-02T00:17:22.743Z,0
2023-03-02T00:18:30.746Z,0
2023-03-02T00:19:39.057Z,0
2023-03-02T00:20:47.286Z,0
2023-03-02T00:21:55.318Z,0
2023-03-02T00:23:04.617Z,0
2023-03-02T00:24:13.838Z,0
2023-03-02T00:25:23.047Z,0
2023-03-02T00:26:32.161Z,0
2023-03-02T00:27:41.443Z,0
2023-03-02T00:28:50.536Z,0
2023-03-02T00:29:59.705Z,0
2023-03-02T00:31:08.890Z,0
2023-03-02T00:32:17.968Z,0
2023-03-02T00:33:27.057Z,0
2023-03-02T00:34:36.454Z,0
2023-03-02T00:35:45.547Z,0
2023-03-02T00:36:53.802Z,0
2023-03-02T00:38:02.766Z,0
2023-03-02T00:39:12.097Z,0
2023-03-02T00:40:21.296Z,0
2023-03-02T00:41:30.293Z,0
2023-03-02T00:42:39.485Z,0
2023-03-02T00:43:48.712Z,0
2023-03-02T00:44:56.836Z,0
2023-03-02T00:46:05.147Z,0
2023-03-02T00:47:14.360Z,0
2023-03-02T00:48:23.589Z,0
2023-03-02T00:49:32.669Z,0
2023-03-02T00:50:41.704Z,0
2023-03-02T00:51:51.050Z,0
2023-03-02T00:53:00.175Z,0
2023-03-02T00:54:09.463Z,0
2023-03-02T00:55:18.560Z,0
2023-03-02T00:56:27.705Z,0
2023-03-02T00:57:36.940Z,0
2023-03-02T00:58:46.037Z,0
2023-03-02T00:59:55.180Z,0
2023-03-02T01:01:03.293Z,0
2023-03-02T01:02:12.640Z,0
2023-03-02T01:03:21.804Z,0
2023-03-02T01:04:30.805Z,0
2023-03-02T01:05:40.137Z,0
2023-03-02T01:06:49.321Z,0
2023-03-02T01:07:58.394Z,0
2023-03-02T01:09:06.734Z,0
2023-03-02T01:10:14.759Z,0
2023-03-02T01:11:22.910Z,0
2023-03-02T01:12:31.299Z,0
2023-03-02T01:13:39.390Z,0
2023-03-02T01:14:47.584Z,0
2023-03-02T01:15:56.809Z,0
2023-03-02T01:17:05.889Z,0
2023-03-02T01:18:15.173Z,0
2023-03-02T01:19:24.333Z,0
2023-03-02T01:20:33.354Z,0
2023-03-02T01:21:42.657Z,0
2023-03-02T01:22:51.703Z,0
2023-03-02T01:24:00.860Z,0
2023-03-02T01:25:10.166Z,0
2023-03-02T01:26:19.400Z,0
2023-03-02T01:27:28.601Z,0
2023-03-02T01:28:37.790Z,0
2023-03-02T01:29:45.880Z,0
2023-03-02T01:30:55.106Z,0
2023-03-02T01:32:04.106Z,0
2023-03-02T01:33:13.435Z,0
2023-03-02T01:34:22.639Z,0
2023-03-02T01:35:31.622Z,0
2023-03-02T01:36:40.913Z,0
2023-03-02T01:37:49.172Z,0
2023-03-02T01:38:57.345Z,0
2023-03-02T01:40:06.574Z,0
2023-03-02T01:41:15.697Z,0
2023-03-02T01:42:24.874Z,0
2023-03-02T01:43:33.158Z,0
2023-03-02T01:44:41.244Z,0
2023-03-02T01:45:50.414Z,0
2023-03-02T01:46:59.568Z,0
2023-03-02T01:48:08.790Z,0
2023-03-02T01:50:27.097Z,0
2023-03-02T01:51:36.290Z,0
2023-03-02T01:52:45.510Z,0
2023-03-02T01:53:54.621Z,0
2023-03-02T01:55:03.764Z,0
2023-03-02T01:56:13.041Z,0
2023-03-02T01:57:22.136Z,0
2023-03-02T01:58:31.220Z,0
2023-03-02T01:59:39.481Z,0
2023-03-02T02:00:48.659Z,0
2023-03-02T02:01:57.856Z,0
2023-03-02T02:03:07.014Z,0
2023-03-02T02:04:16.197Z,0
2023-03-02T02:05:25.379Z,0
2023-03-02T02:06:34.532Z,0
2023-03-02T02:07:43.721Z,0
2023-03-02T02:08:51.938Z,0
2023-03-02T02:10:00.059Z,0
2023-03-02T02:11:09.300Z,0
2023-03-02T02:12:18.415Z,0
2023-03-02T02:13:26.653Z,0
2023-03-02T02:14:34.862Z,0
2023-03-02T02:15:44.021Z,0
2023-03-02T02:16:53.169Z,0
2023-03-02T02:18:02.442Z,0
2023-03-02T02:19:11.510Z,0
2023-03-02T02:21:29.916Z,0
2023-03-02T02:22:39.144Z,0
2023-03-02T02:23:48.158Z,0
2023-03-02T02:24:57.316Z,0
2023-03-02T02:26:06.526Z,0
2023-03-02T02:27:15.679Z,0
2023-03-02T02:28:24.769Z,0
2023-03-02T02:29:33.093Z,0
2023-03-02T02:30:42.116Z,0
2023-03-02T02:31:51.588Z,0
2023-03-02T02:33:00.615Z,0
2023-03-02T02:34:09.821Z,0
2023-03-02T02:35:18.982Z,0
2023-03-02T02:36:28.125Z,0
2023-03-02T02:37:37.340Z,0
2023-03-02T02:38:45.489Z,0
2023-03-02T02:39:53.724Z,0
2023-03-02T02:41:02.924Z,0
2023-03-02T02:42:12.070Z,0
2023-03-02T02:43:21.294Z,0
2023-03-02T02:44:30.419Z,0
2023-03-02T02:46:47.776Z,0
2023-03-02T02:47:55.828Z,0
2023-03-02T02:49:04.052Z,0
2023-03-02T02:50:13.240Z,0
2023-03-02T02:51:22.415Z,0
2023-03-02T02:52:31.620Z,0
2023-03-02T02:53:40.694Z,0
2023-03-02T02:54:49.863Z,0
2023-03-02T02:55:59.057Z,0
2023-03-02T02:57:08.201Z,0
2023-03-02T02:58:17.382Z,0
2023-03-02T02:59:26.576Z,0
2023-03-02T03:00:35.722Z,0
2023-03-02T03:01:44.910Z,0
2023-03-02T03:02:54.068Z,0
2023-03-02T03:04:02.260Z,0
2023-03-02T03:05:11.450Z,0
2023-03-02T03:06:20.633Z,0
2023-03-02T03:07:29.773Z,0
2023-03-02T03:08:38.977Z,0
2023-03-02T03:09:48.123Z,0
2023-03-02T03:10:57.301Z,0
2023-03-02T03:12:05.485Z,0
2023-03-02T03:13:13.709Z,0
2023-03-02T03:14:22.881Z,0
2023-03-02T03:15:32.050Z,0
2023-03-02T03:16:40.235Z,0
2023-03-02T03:17:48.444Z,0
2023-03-02T03:18:57.587Z,0
2023-03-02T03:20:06.762Z,0
2023-03-02T03:21:15.927Z,0
2023-03-02T03:22:25.106Z,0
2023-03-02T03:23:34.283Z,0
2023-03-02T03:24:43.446Z,0
2023-03-02T03:25:52.632Z,0
2023-03-02T03:27:01.801Z,0
2023-03-02T03:28:10.969Z,0
2023-03-02T03:29:20.147Z,0
2023-03-02T03:30:29.328Z,0
2023-03-02T03:31:38.494Z,0
2023-03-02T03:32:46.681Z,0
2023-03-02T03:33:55.868Z,0
2023-03-02T03:35:05.021Z,0
2023-03-02T03:36:14.213Z,0
2023-03-02T03:37:23.467Z,0
2023-03-02T03:38:32.588Z,0
2023-03-02T03:39:41.746Z,0
2023-03-02T03:40:49.921Z,0
2023-03-02T03:41:58.191Z,0
2023-03-02T03:43:06.304Z,0
2023-03-02T03:44:14.488Z,0
2023-03-02T03:45:23.705Z,0
2023-03-02T03:46:32.891Z,0
2023-03-02T03:47:42.014Z,0
2023-03-02T03:48:51.179Z,0
2023-03-02T03:50:00.361Z,0
2023-03-02T03:51:09.518Z,0
2023-03-02T03:52:18.698Z,0
2023-03-02T03:53:27.874Z,0
2023-03-02T03:54:37.078Z,0
2023-03-02T03:55:46.216Z,0
2023-03-02T03:56:55.392Z,0
2023-03-02T03:58:04.590Z,0
2023-03-02T03:59:12.752Z,0
2023-03-02T04:00:21.946Z,0
2023-03-02T04:01:31.102Z,0
2023-03-02T04:02:40.267Z,0
2023-03-02T04:04:58.626Z,0
2023-03-02T04:06:07.791Z,0
2023-03-02T04:07:16.962Z,0
2023-03-02T04:08:25.167Z,0
2023-03-02T04:09:33.365Z,0
2023-03-02T04:10:42.522Z,0
2023-03-02T04:11:51.697Z,0
2023-03-02T04:12:59.905Z,0
2023-03-02T04:15:17.292Z,0
2023-03-02T04:16:26.452Z,0
2023-03-02T04:17:35.594Z,0
2023-03-02T04:18:44.771Z,0
2023-03-02T04:19:53.960Z,0
2023-03-02T04:21:03.124Z,0
2023-03-02T04:22:12.288Z,0
2023-03-02T04:24:30.643Z,0
2023-03-02T04:25:39.827Z,0
2023-03-02T04:26:49.006Z,0
2023-03-02T04:27:57.200Z,0
2023-03-02T04:29:06.359Z,0
2023-03-02T04:30:15.535Z,0
2023-03-02T04:31:24.700Z,0
2023-03-02T04:32:33.882Z,0
2023-03-02T04:34:52.228Z,0
2023-03-02T04:36:00.430Z,0
2023-03-02T04:37:08.614Z,0
2023-03-02T04:38:17.794Z,0
2023-03-02T04:39:26.965Z,0
2023-03-02T04:41:45.306Z,0
2023-03-02T04:42:54.483Z,0
2023-03-02T04:44:03.697Z,0
2023-03-02T04:45:12.835Z,0
2023-03-02T04:46:21.998Z,0
2023-03-02T04:47:31.192Z,0
2023-03-02T04:48:40.364Z,0
2023-03-02T04:49:49.579Z,0
2023-03-02T04:50:58.699Z,0
2023-03-02T04:52:06.999Z,0
2023-03-02T04:53:16.058Z,0
2023-03-02T04:54:25.250Z,0
2023-03-02T04:55:34.417Z,0
2023-03-02T04:56:43.581Z,0
2023-03-02T04:57:52.787Z,0
2023-03-02T04:59:01.932Z,0
2023-03-02T05:00:11.106Z,0
2023-03-02T05:01:19.432Z,0
2023-03-02T05:02:27.510Z,0
2023-03-02T05:03:35.672Z,0
2023-03-02T05:04:43.892Z,0
2023-03-02T05:05:53.072Z,0
2023-03-02T05:07:02.239Z,0
2023-03-02T05:08:11.433Z,0
2023-03-02T05:09:20.567Z,0
2023-03-02T05:10:29.731Z,0
2023-03-02T05:11:38.914Z,0
2023-03-02T05:12:48.084Z,0
2023-03-02T05:13:57.246Z,0
2023-03-02T05:15:06.429Z,0
2023-03-02T05:16:15.708Z,0
2023-03-02T05:17:24.824Z,0
2023-03-02T05:18:33.966Z,0
2023-03-02T05:19:42.163Z,0
2023-03-02T05:20:51.312Z,0
2023-03-02T05:22:00.484Z,0
2023-03-02T05:23:09.661Z,0
2023-03-02T05:24:18.944Z,0
2023-03-02T05:25:28.005Z,0
2023-03-02T05:26:37.305Z,0
2023-03-02T05:27:45.381Z,0
2023-03-02T05:28:53.565Z,0
2023-03-02T05:30:01.765Z,0
2023-03-02T05:31:09.948Z,0
2023-03-02T05:32:19.125Z,0
2023-03-02T05:33:28.308Z,3
2023-03-02T05:34:37.471Z,3
2023-03-02T05:35:46.660Z,3
2023-03-02T05:36:55.808Z,3
2023-03-02T05:38:04.992Z,3
2023-03-02T05:39:14.160Z,3
2023-03-02T05:40:23.341Z,4
2023-03-02T05:41:32.506Z,0
2023-03-02T05:42:41.685Z,4
2023-03-02T05:43:50.855Z,4
2023-03-02T05:45:00.022Z,1
2023-03-02T05:46:08.218Z,1
2023-03-02T05:47:17.393Z,1
2023-03-02T05:48:26.567Z,1
2023-03-02T05:49:35.832Z,3
2023-03-02T05:50:44.914Z,3
2023-03-02T05:53:03.262Z,4
2023-03-02T05:54:12.452Z,28
2023-03-02T05:55:20.626Z,6
2023-03-02T05:56:28.806Z,9
2023-03-02T05:57:37.014Z,10
2023-03-02T05:58:46.215Z,18
2023-03-02T05:59:54.374Z,23
2023-03-02T06:01:03.553Z,29
2023-03-02T06:02:12.727Z,39
2023-03-02T06:03:21.903Z,36
2023-03-02T06:04:31.064Z,63
2023-03-02T06:05:40.248Z,64
2023-03-02T06:06:49.421Z,83
2023-03-02T06:07:58.585Z,93
2023-03-02T06:09:07.762Z,107
2023-03-02T06:10:16.937Z,135
2023-03-02T06:12:35.283Z,177
2023-03-02T06:13:44.446Z,205
2023-03-02T06:14:52.677Z,233
2023-03-02T06:16:01.829Z,265
2023-03-02T06:17:10.991Z,294
2023-03-02T06:18:20.175Z,335
2023-03-02T06:19:29.346Z,364
2023-03-02T06:20:38.516Z,401
2023-03-02T06:21:47.693Z,444
2023-03-02T06:24:05.045Z,519
2023-03-02T06:25:13.239Z,569
2023-03-02T06:26:21.510Z,633
2023-03-02T06:27:29.635Z,653
2023-03-02T06:28:37.824Z,701
2023-03-02T06:29:46.994Z,739
2023-03-02T06:30:56.228Z,790
2023-03-02T06:32:05.338Z,851
2023-03-02T06:33:14.531Z,874
2023-03-02T06:34:23.770Z,905
2023-03-02T06:35:32.888Z,950
2023-03-02T06:36:42.039Z,994
2023-03-02T06:37:51.219Z,1060
2023-03-02T06:39:00.385Z,1096
2023-03-02T06:40:09.555Z,1146
2023-03-02T06:41:18.718Z,1188
2023-03-02T06:43:37.079Z,1288
2023-03-02T06:44:45.275Z,1326
2023-03-02T06:45:54.449Z,1351
2023-03-02T06:47:03.621Z,1392
2023-03-02T06:48:12.821Z,1459
2023-03-02T06:49:21.957Z,1460
2023-03-02T06:50:31.129Z,1498
2023-03-02T06:51:40.311Z,1554
2023-03-02T06:52:48.501Z,1596
2023-03-02T06:53:56.689Z,1698
2023-03-02T06:55:05.865Z,1736
2023-03-02T06:56:14.065Z,1802
2023-03-02T06:57:22.318Z,1856
2023-03-02T06:58:31.460Z,1919
2023-03-02T06:59:40.607Z,1954
2023-03-02T07:00:49.769Z,2048
2023-03-02T07:01:59.014Z,2121
2023-03-02T07:03:08.357Z,2205
2023-03-02T07:04:17.563Z,2269
2023-03-02T07:05:26.678Z,2282
2023-03-02T07:06:35.886Z,2376
2023-03-02T07:07:45.024Z,2444
2023-03-02T07:08:54.230Z,2468
2023-03-02T07:10:03.369Z,2611
2023-03-02T07:11:12.557Z,2586
2023-03-02T07:12:20.774Z,2493
2023-03-02T07:13:29.912Z,2883
2023-03-02T07:14:39.167Z,2905
2023-03-02T07:15:48.286Z,2946
2023-03-02T07:16:57.425Z,2984
2023-03-02T07:18:06.610Z,2939
2023-03-02T07:19:15.789Z,3044
2023-03-02T07:20:23.961Z,3194
2023-03-02T07:21:32.167Z,3192
2023-03-02T07:22:41.335Z,3313
2023-03-02T07:23:50.508Z,3311
2023-03-02T07:24:59.728Z,3352
2023-03-02T07:26:08.861Z,3375
2023-03-02T07:27:18.040Z,3459
2023-03-02T07:28:27.262Z,3628
2023-03-02T07:29:36.372Z,3612
2023-03-02T07:31:54.705Z,3569
2023-03-02T07:33:03.945Z,3908
2023-03-02T07:34:13.054Z,3799
2023-03-02T07:35:22.233Z,3797
2023-03-02T07:36:30.423Z,3864
2023-03-02T07:37:39.593Z,4137
2023-03-02T07:38:48.791Z,3813
2023-03-02T07:39:57.944Z,2560
2023-03-02T07:41:07.115Z,6597
2023-03-02T07:42:16.282Z,3942
2023-03-02T07:43:25.466Z,4042
2023-03-02T07:44:34.655Z,4177
2023-03-02T07:45:42.830Z,4163
2023-03-02T07:46:51.020Z,4366
2023-03-02T07:47:59.210Z,4501
2023-03-02T07:49:07.405Z,4291
2023-03-02T07:50:15.595Z,4493
2023-03-02T07:51:23.779Z,4504
2023-03-02T07:52:32.961Z,4549
2023-03-02T07:53:42.135Z,4549
2023-03-02T07:54:51.315Z,4661
2023-03-02T07:56:00.476Z,4665
2023-03-02T07:57:09.658Z,4605
2023-03-02T07:58:18.814Z,4832
2023-03-02T07:59:28.003Z,4761
2023-03-02T08:00:37.167Z,4819
2023-03-02T08:01:46.348Z,4887
2023-03-02T08:02:55.511Z,4931
2023-03-02T08:04:04.765Z,4987
2023-03-02T08:05:13.933Z,4846
2023-03-02T08:06:22.061Z,5122
2023-03-02T08:07:31.232Z,5104
2023-03-02T08:09:49.573Z,5197
2023-03-02T08:10:58.753Z,5120
2023-03-02T08:13:17.088Z,5521
2023-03-02T08:14:25.295Z,5073
2023-03-02T08:15:33.473Z,5425
2023-03-02T08:16:42.647Z,5611
2023-03-02T08:17:51.811Z,5203
2023-03-02T08:19:00.075Z,5625
2023-03-02T08:20:09.232Z,5613
2023-03-02T08:21:18.356Z,5601
2023-03-02T08:22:27.534Z,5557
2023-03-02T08:23:36.735Z,5870
2023-03-02T08:24:45.878Z,5647
2023-03-02T08:25:55.132Z,5774
2023-03-02T08:27:04.215Z,5867
2023-03-02T08:28:12.428Z,5756
2023-03-02T08:29:20.613Z,6038
2023-03-02T08:30:29.849Z,5993
2023-03-02T08:31:38.967Z,5954
2023-03-02T08:32:48.144Z,6013
2023-03-02T08:33:57.356Z,5989
2023-03-02T08:35:06.503Z,5953
2023-03-02T08:36:15.646Z,6191
2023-03-02T08:37:24.815Z,6214
2023-03-02T08:38:33.989Z,6219
2023-03-02T08:39:43.182Z,6188
2023-03-02T08:40:52.348Z,6307
2023-03-02T08:42:01.506Z,6405
2023-03-02T08:43:10.690Z,6187
2023-03-02T08:44:18.858Z,6478
2023-03-02T08:45:28.048Z,6468
2023-03-02T08:46:37.223Z,6398
2023-03-02T08:47:46.447Z,6584
2023-03-02T08:48:55.582Z,6529
2023-03-02T08:50:04.723Z,6590
2023-03-02T08:51:13.897Z,6572
2023-03-02T08:52:22.115Z,6622
2023-03-02T08:53:30.301Z,6605
2023-03-02T08:54:38.489Z,6697
2023-03-02T08:55:46.674Z,6741
2023-03-02T08:56:55.897Z,6767
2023-03-02T08:58:05.008Z,6752
2023-03-02T08:59:14.183Z,6796
2023-03-02T09:00:23.368Z,6763
2023-03-02T09:01:32.539Z,6923
2023-03-02T09:02:41.707Z,6813
2023-03-02T09:03:50.876Z,6941
2023-03-02T09:05:00.049Z,6916
2023-03-02T09:06:09.212Z,6985
2023-03-02T09:07:18.387Z,7021
2023-03-02T09:08:27.565Z,7018
2023-03-02T09:09:36.784Z,7019
2023-03-02T09:10:44.928Z,7091
2023-03-02T09:11:54.104Z,7189
2023-03-02T09:13:03.267Z,7109
2023-03-02T09:14:12.442Z,7126
2023-03-02T09:15:21.620Z,7196
2023-03-02T09:16:30.790Z,7238
2023-03-02T09:17:40.012Z,7274
2023-03-02T09:18:49.128Z,7148
2023-03-02T09:19:58.302Z,7322
2023-03-02T09:21:07.502Z,7282
2023-03-02T09:22:16.642Z,7363
2023-03-02T09:23:25.812Z,7375
2023-03-02T09:24:35.000Z,7433
2023-03-02T09:25:43.169Z,7426
2023-03-02T09:26:52.392Z,7356
2023-03-02T09:28:01.557Z,7549
2023-03-02T09:29:10.718Z,7388
2023-03-02T09:30:19.874Z,7474
2023-03-02T09:31:28.074Z,7605
2023-03-02T09:32:36.409Z,7548
2023-03-02T09:33:45.432Z,7540
2023-03-02T09:34:54.612Z,7705
2023-03-02T09:36:03.819Z,7652
2023-03-02T09:37:12.959Z,7559
2023-03-02T09:38:22.184Z,7751
2023-03-02T09:39:31.450Z,7781
2023-03-02T09:40:39.498Z,7636
2023-03-02T09:41:47.678Z,7781
2023-03-02T09:42:56.845Z,7834
2023-03-02T09:44:06.036Z,7838
2023-03-02T09:45:15.204Z,7775
2023-03-02T09:46:24.380Z,7900
2023-03-02T09:47:33.541Z,7839
2023-03-02T09:48:42.716Z,8008
2023-03-02T09:49:51.894Z,7968
2023-03-02T09:51:01.077Z,7992
2023-03-02T09:52:10.250Z,8068
2023-03-02T09:53:19.406Z,8063
2023-03-02T09:54:28.583Z,7996
2023-03-02T09:55:37.734Z,8095
2023-03-02T09:56:45.995Z,8176
2023-03-02T09:57:55.164Z,8180
2023-03-02T09:59:04.318Z,8292
2023-03-02T10:00:13.458Z,8199
2023-03-02T10:01:22.698Z,8280
2023-03-02T10:02:31.804Z,8295
2023-03-02T10:03:41.064Z,8344
2023-03-02T10:04:49.171Z,8326
2023-03-02T10:07:06.534Z,8376
2023-03-02T10:08:15.719Z,8428
2023-03-02T10:09:24.900Z,8530
2023-03-02T10:10:33.072Z,8532
2023-03-02T10:12:51.413Z,8652
2023-03-02T10:13:59.595Z,8511
2023-03-02T10:15:08.758Z,8568
2023-03-02T10:16:17.942Z,8673
2023-03-02T10:17:27.114Z,8655
2023-03-02T10:18:36.381Z,8758
2023-03-02T10:19:45.468Z,8856
2023-03-02T10:20:54.662Z,8495
2023-03-02T10:23:12.998Z,9059
2023-03-02T10:24:22.153Z,8925
2023-03-02T10:25:31.309Z,9012
2023-03-02T10:26:40.501Z,9440
2023-03-02T10:27:49.651Z,9634
2023-03-02T10:28:57.978Z,10325
2023-03-02T10:30:07.028Z,8997
2023-03-02T10:31:16.193Z,9899
2023-03-02T10:32:25.366Z,9757
2023-03-02T10:33:34.532Z,9642
2023-03-02T10:34:43.721Z,9502
2023-03-02T10:35:52.906Z,9204
2023-03-02T10:37:01.090Z,11042
2023-03-02T10:38:09.344Z,12012
2023-03-02T10:39:18.457Z,11495
2023-03-02T10:40:26.629Z,11552
2023-03-02T10:41:34.911Z,11430
2023-03-02T10:42:43.987Z,11435
2023-03-02T10:43:53.163Z,10735
2023-03-02T10:45:02.332Z,10617
2023-03-02T10:46:11.515Z,10579
2023-03-02T10:47:20.698Z,10728
2023-03-02T10:48:29.905Z,11251
2023-03-02T10:49:39.059Z,10264
2023-03-02T10:50:48.218Z,10797
2023-03-02T10:51:57.400Z,13218
2023-03-02T10:53:06.568Z,11477
2023-03-02T10:54:15.741Z,10062
2023-03-02T10:55:24.911Z,12712
2023-03-02T10:56:33.101Z,16068
2023-03-02T10:57:42.269Z,10017
2023-03-02T10:58:51.471Z,10616
2023-03-02T11:00:00.617Z,13342
2023-03-02T11:01:09.867Z,13453
2023-03-02T11:02:18.977Z,15885
2023-03-02T11:03:28.147Z,12800
2023-03-02T11:04:37.290Z,13000
2023-03-02T11:05:46.479Z,12825
2023-03-02T11:06:55.638Z,13041
2023-03-02T11:08:03.852Z,9325
2023-03-02T11:09:12.038Z,10366
2023-03-02T11:10:21.203Z,14234
2023-03-02T11:11:29.395Z,11676
2023-03-02T11:12:37.593Z,12661
2023-03-02T11:13:46.776Z,15816
2023-03-02T11:14:55.945Z,13158
2023-03-02T11:16:05.122Z,13130
2023-03-02T11:17:14.276Z,12125
2023-03-02T11:18:23.459Z,11997
2023-03-02T11:19:32.627Z,10694
2023-03-02T11:20:41.796Z,11347
2023-03-02T11:21:50.981Z,11816
2023-03-02T11:24:09.308Z,12436
2023-03-02T11:25:18.491Z,11412
2023-03-02T11:26:27.648Z,10969
2023-03-02T11:27:35.906Z,9966
2023-03-02T11:29:54.187Z,11885
2023-03-02T11:31:02.386Z,11014
2023-03-02T11:32:10.568Z,11023
2023-03-02T11:33:19.744Z,10705
2023-03-02T11:34:28.927Z,10461
2023-03-02T11:35:38.096Z,10079
2023-03-02T11:36:47.256Z,10835
2023-03-02T11:37:56.603Z,12031
2023-03-02T11:39:05.620Z,11353
2023-03-02T11:40:14.775Z,11032
2023-03-02T11:41:23.936Z,10794
2023-03-02T11:42:33.117Z,10595
2023-03-02T11:43:41.324Z,10408
2023-03-02T11:44:49.512Z,10287
2023-03-02T11:45:58.681Z,10613
2023-03-02T11:47:07.852Z,10558
2023-03-02T11:48:17.024Z,10513
2023-03-02T11:50:35.402Z,10209
2023-03-02T11:51:44.729Z,10523
2023-03-02T11:52:53.704Z,10403
2023-03-02T11:54:03.062Z,10452
2023-03-02T11:55:12.055Z,10565
2023-03-02T11:56:21.436Z,10566
2023-03-02T11:57:30.579Z,10554
2023-03-02T11:58:39.773Z,10523
2023-03-02T11:59:47.938Z,10598
2023-03-02T12:00:57.094Z,10541
2023-03-02T12:02:06.286Z,10606
2023-03-02T12:03:15.476Z,10160
2023-03-02T12:04:24.635Z,10534
2023-03-02T12:05:33.744Z,10446
2023-03-02T12:06:43.001Z,10486
2023-03-02T12:07:51.969Z,10454
2023-03-02T12:09:01.281Z,10604
2023-03-02T12:10:09.464Z,10453
2023-03-02T12:11:18.770Z,10433
2023-03-02T12:12:27.888Z,10491
2023-03-02T12:13:36.976Z,10563
2023-03-02T12:14:46.027Z,10405
2023-03-02T12:15:55.411Z,10520
2023-03-02T12:17:04.431Z,10414
2023-03-02T12:18:13.710Z,10383
2023-03-02T12:19:22.723Z,10310
2023-03-02T12:20:31.887Z,10405
2023-03-02T12:21:41.214Z,10376
2023-03-02T12:22:50.401Z,10391
2023-03-02T12:23:59.528Z,10391
2023-03-02T12:25:08.580Z,10207
2023-03-02T12:26:17.068Z,10450
2023-03-02T12:27:25.981Z,10413
2023-03-02T12:28:35.291Z,10614
2023-03-02T12:29:44.534Z,10338
2023-03-02T12:30:53.638Z,10735
2023-03-02T12:32:02.840Z,10620
2023-03-02T12:33:11.949Z,10622
2023-03-02T12:35:30.272Z,11048
2023-03-02T12:36:39.483Z,9546
2023-03-02T12:37:48.492Z,10559
2023-03-02T12:38:57.823Z,10613
2023-03-02T12:40:07.046Z,10436
2023-03-02T12:41:15.170Z,10387
2023-03-02T12:42:24.307Z,10179
2023-03-02T12:43:33.589Z,10463
2023-03-02T12:44:42.700Z,10141
2023-03-02T12:45:51.889Z,9952
2023-03-02T12:47:01.036Z,10080
2023-03-02T12:48:10.445Z,10573
2023-03-02T12:49:19.225Z,11126
2023-03-02T12:50:28.560Z,11430
2023-03-02T12:51:37.669Z,11495
2023-03-02T12:52:46.747Z,11595
2023-03-02T12:53:55.981Z,11136
2023-03-02T12:55:05.257Z,11066
2023-03-02T12:56:13.412Z,11099
2023-03-02T12:57:22.625Z,11266
2023-03-02T12:58:31.767Z,11336
2023-03-02T12:59:40.881Z,11364
2023-03-02T13:00:49.175Z,11694
2023-03-02T13:01:57.349Z,11354
2023-03-02T13:03:06.358Z,11562
2023-03-02T13:04:15.689Z,11611
2023-03-02T13:05:24.694Z,12160
2023-03-02T13:06:33.883Z,12071
2023-03-02T13:07:43.033Z,12582
2023-03-02T13:08:51.229Z,13068
2023-03-02T13:09:59.418Z,12348
2023-03-02T13:11:08.592Z,12560
2023-03-02T13:12:17.758Z,14427
2023-03-02T13:13:26.969Z,12517
2023-03-02T13:14:36.116Z,11727
2023-03-02T13:15:45.279Z,13792
2023-03-02T13:16:54.572Z,16631
2023-03-02T13:18:03.784Z,14276
2023-03-02T13:19:12.888Z,17499
2023-03-02T13:20:22.008Z,18881
2023-03-02T13:21:31.337Z,18618
2023-03-02T13:22:40.324Z,19653
2023-03-02T13:23:49.476Z,18629
2023-03-02T13:24:57.724Z,15674
2023-03-02T13:26:06.868Z,14140
2023-03-02T13:27:16.023Z,20747
2023-03-02T13:28:25.210Z,13551
2023-03-02T13:29:34.392Z,12898
2023-03-02T13:30:43.521Z,23550
2023-03-02T13:31:52.700Z,17207
2023-03-02T13:33:00.911Z,10953
2023-03-02T13:34:09.094Z,22152
2023-03-02T13:35:18.266Z,30003
2023-03-02T13:36:27.425Z,9782
2023-03-02T13:37:35.799Z,14805
2023-03-02T13:38:43.963Z,38821
2023-03-02T13:39:53.097Z,35257
2023-03-02T13:41:02.313Z,27102
2023-03-02T13:42:11.372Z,16147
2023-03-02T13:43:20.619Z,22495
2023-03-02T13:44:29.760Z,45872
2023-03-02T13:45:38.996Z,21649
2023-03-02T13:46:48.126Z,31701
2023-03-02T13:47:57.268Z,11828
2023-03-02T13:49:06.363Z,30080
2023-03-02T13:50:15.548Z,24588
2023-03-02T13:51:24.709Z,26603
2023-03-02T13:52:33.941Z,10773
2023-03-02T13:53:42.166Z,21567
2023-03-02T13:54:51.380Z,35817
2023-03-02T13:56:00.412Z,22113
2023-03-02T13:57:09.660Z,17422
2023-03-02T13:58:18.744Z,20754
2023-03-02T13:59:28.038Z,21791
2023-03-02T14:00:37.093Z,9879
2023-03-02T14:01:45.334Z,24325
2023-03-02T14:02:53.480Z,28011
2023-03-02T14:04:02.687Z,15110
2023-03-02T14:05:11.938Z,13736
2023-03-02T14:06:21.007Z,10735
2023-03-02T14:07:30.324Z,13621
2023-03-02T14:08:38.554Z,13982
2023-03-02T14:09:46.742Z,25003
2023-03-02T14:10:55.745Z,14699
2023-03-02T14:12:04.979Z,22671
2023-03-02T14:13:14.203Z,12243
2023-03-02T14:14:23.360Z,26109
2023-03-02T14:15:32.425Z,27723
2023-03-02T14:16:41.666Z,22415
2023-03-02T14:17:50.805Z,14575
2023-03-02T14:18:59.978Z,25700
2023-03-02T14:20:09.134Z,25768
2023-03-02T14:21:18.349Z,22098
2023-03-02T14:22:27.546Z,12873
2023-03-02T14:23:36.660Z,21380
2023-03-02T14:24:44.868Z,29523
2023-03-02T14:25:54.000Z,28355
2023-03-02T14:27:03.171Z,33676
2023-03-02T14:29:21.508Z,21603
2023-03-02T14:30:30.677Z,21087
2023-03-02T14:31:39.929Z,12119
2023-03-02T14:32:49.113Z,35069
2023-03-02T14:33:58.286Z,22478
2023-03-02T14:36:15.661Z,15518
2023-03-02T14:37:23.962Z,49762
2023-03-02T14:38:32.124Z,35524
2023-03-02T14:40:49.543Z,38277
2023-03-02T14:41:57.602Z,34241
2023-03-02T14:43:05.724Z,44405
2023-03-02T14:44:15.073Z,43827
2023-03-02T14:46:33.233Z,44677
2023-03-02T14:47:42.522Z,43622
2023-03-02T14:48:51.592Z,51836
2023-03-02T14:50:00.751Z,30167
2023-03-02T14:51:09.919Z,51889
2023-03-02T14:52:19.102Z,37436
2023-03-02T14:53:28.382Z,44304
2023-03-02T14:54:37.605Z,42209
2023-03-02T14:55:46.794Z,37167
2023-03-02T14:56:55.859Z,33384
2023-03-02T14:58:04.032Z,51753
2023-03-02T14:59:13.154Z,38645
2023-03-02T15:00:22.326Z,40555
2023-03-02T15:01:31.496Z,29299
2023-03-02T15:02:40.660Z,16545
2023-03-02T15:03:49.894Z,37623
2023-03-02T15:04:59.209Z,31562
2023-03-02T15:06:08.309Z,20386
2023-03-02T15:07:16.520Z,52499
2023-03-02T15:08:24.570Z,45158
2023-03-02T15:09:32.759Z,47898
2023-03-02T15:11:51.122Z,42830
2023-03-02T15:12:59.349Z,36370
2023-03-02T15:14:08.467Z,26148
2023-03-02T15:15:17.634Z,19615
2023-03-02T15:16:26.819Z,34012
2023-03-02T15:17:35.981Z,43526
2023-03-02T15:18:45.155Z,23882
2023-03-02T15:19:54.323Z,24103
2023-03-02T15:21:03.509Z,20332
2023-03-02T15:22:12.674Z,38534
2023-03-02T15:23:21.853Z,26416
2023-03-02T15:25:40.193Z,39876
2023-03-02T15:26:49.365Z,40154
2023-03-02T15:27:57.550Z,27821
2023-03-02T15:29:06.716Z,40383
2023-03-02T15:30:15.892Z,44029
2023-03-02T15:31:25.055Z,35332
2023-03-02T15:32:34.244Z,35618
2023-03-02T15:33:43.420Z,19767
2023-03-02T15:34:52.574Z,32160
2023-03-02T15:36:00.791Z,26445
2023-03-02T15:38:18.121Z,17056
2023-03-02T15:39:27.470Z,43751
2023-03-02T15:40:36.510Z,40182
2023-03-02T15:41:44.853Z,37742
2023-03-02T15:42:53.062Z,20874
2023-03-02T15:44:02.207Z,36997
2023-03-02T15:45:11.341Z,40559
2023-03-02T15:47:29.671Z,23188
2023-03-02T15:48:38.741Z,15182
2023-03-02T15:49:47.979Z,26615
2023-03-02T15:50:57.059Z,48705
2023-03-02T15:52:06.236Z,31440
2023-03-02T15:53:15.424Z,29985
2023-03-02T15:54:24.580Z,21382
2023-03-02T15:55:33.756Z,35275
2023-03-02T15:56:43.066Z,30452
2023-03-02T15:57:51.137Z,33404
2023-03-02T15:59:00.288Z,22608
2023-03-02T16:00:09.475Z,29520
2023-03-02T16:01:17.647Z,46353
2023-03-02T16:02:27.026Z,20692
2023-03-02T16:03:36.188Z,11340
2023-03-02T16:04:45.319Z,10950
2023-03-02T16:05:54.441Z,15533
2023-03-02T16:07:02.574Z,14392
2023-03-02T16:08:10.721Z,10769
2023-03-02T16:09:19.004Z,13201
2023-03-02T16:10:28.186Z,5888
2023-03-02T16:11:36.299Z,4045
2023-03-02T16:13:54.690Z,13375
2023-03-02T16:15:03.801Z,10856
2023-03-02T16:16:12.993Z,13567
2023-03-02T16:17:22.151Z,11726
2023-03-02T16:18:31.314Z,3396